sensor_id;sensor_type;location;lat;lon;timestamp;pressure;altitude;pressure_sealevel;temperature;humidity
45113;BME280;30873;53.908;27.576;2023-02-27T00:01:47;1019;;;-1;56.3
45113;BME280;30873;53.908;27.576;2023-02-27T00:07:05;1019.1;;;-1;56.4
45113;BME280;30873;53.908;27.576;2023-02-27T00:11:37;1019.2;;;-1;56.5
45113;BME280;30873;53.908;27.576;2023-02-27T00:16:09;1019.2;;;-1;56.9
45113;BME280;30873;53.908;27.576;2023-02-27T00:21:35;1019.3;;;-0.8;56.9
45113;BME280;30873;53.908;27.576;2023-02-27T00:26:47;1019.3;;;-0.8;56.7
45113;BME280;30873;53.908;27.576;2023-02-27T00:32:03;1019.3;;;-0.9;55.7
45113;BME280;30873;53.908;27.576;2023-02-27T00:36:35;1019.3;;;-1;55
45113;BME280;30873;53.908;27.576;2023-02-27T00:41:09;1019.3;;;-1.2;55.3
45113;BME280;30873;53.908;27.576;2023-02-27T00:46:23;1019.3;;;-1.1;54.9
45113;BME280;30873;53.908;27.576;2023-02-27T00:51:47;1019.4;;;-1.1;55.1
45113;BME280;30873;53.908;27.576;2023-02-27T00:57:03;1019.4;;;-0.9;54.9
45113;BME280;30873;53.908;27.576;2023-02-27T01:01:37;1019.5;;;-0.7;54.7
45113;BME280;30873;53.908;27.576;2023-02-27T01:06:21;1019.6;;;-0.7;54.4
45113;BME280;30873;53.908;27.576;2023-02-27T01:11:09;1019.6;;;-0.6;54.3
45113;BME280;30873;53.908;27.576;2023-02-27T01:16:35;1019.7;;;-0.5;53.9
45113;BME280;30873;53.908;27.576;2023-02-27T01:22:01;1019.8;;;-0.6;53.5
45113;BME280;30873;53.908;27.576;2023-02-27T01:26:45;1019.9;;;-0.6;53.7
45113;BME280;30873;53.908;27.576;2023-02-27T01:31:35;1020;;;-0.5;53.7
45113;BME280;30873;53.908;27.576;2023-02-27T01:36:35;1020;;;-0.5;53.3
45113;BME280;30873;53.908;27.576;2023-02-27T01:41:47;1020.1;;;-0.6;53.4
45113;BME280;30873;53.908;27.576;2023-02-27T01:47:01;1020.1;;;-0.7;53.4
45113;BME280;30873;53.908;27.576;2023-02-27T01:51:23;1020.2;;;-0.7;53.7
45113;BME280;30873;53.908;27.576;2023-02-27T01:56:22;1020.2;;;-0.7;54
45113;BME280;30873;53.908;27.576;2023-02-27T02:01:33;1020.2;;;-0.7;54.2
45113;BME280;30873;53.908;27.576;2023-02-27T02:07:03;1020.3;;;-0.6;54
45113;BME280;30873;53.908;27.576;2023-02-27T02:11:47;1020.3;;;-0.6;53.8
45113;BME280;30873;53.908;27.576;2023-02-27T02:17:07;1020.3;;;-0.5;53.9
45113;BME280;30873;53.908;27.576;2023-02-27T02:21:29;1020.3;;;-0.5;53.8
45113;BME280;30873;53.908;27.576;2023-02-27T02:26:38;1020.3;;;-0.5;54.1
45113;BME280;30873;53.908;27.576;2023-02-27T02:32:08;1020.4;;;-0.4;54.1
45113;BME280;30873;53.908;27.576;2023-02-27T02:42:01;1020.5;;;-0.4;53.9
45113;BME280;30873;53.908;27.576;2023-02-27T02:46:37;1020.6;;;-0.4;54
45113;BME280;30873;53.908;27.576;2023-02-27T02:51:33;1020.6;;;-0.5;54
45113;BME280;30873;53.908;27.576;2023-02-27T02:57:01;1020.7;;;-0.4;54.2
45113;BME280;30873;53.908;27.576;2023-02-27T03:01:48;1020.7;;;-0.4;54.2
45113;BME280;30873;53.908;27.576;2023-02-27T03:07:03;1020.7;;;-0.5;54.4
45113;BME280;30873;53.908;27.576;2023-02-27T03:11:34;1020.8;;;-0.5;54.4
45113;BME280;30873;53.908;27.576;2023-02-27T03:16:09;1020.8;;;-0.5;54.6
45113;BME280;30873;53.908;27.576;2023-02-27T03:22:04;1020.9;;;-0.5;55.2
45113;BME280;30873;53.908;27.576;2023-02-27T03:26:40;1020.8;;;-0.5;55.1
45113;BME280;30873;53.908;27.576;2023-02-27T03:32:02;1020.9;;;-0.5;55.4
45113;BME280;30873;53.908;27.576;2023-02-27T03:36:10;1021;;;-0.3;55.3
45113;BME280;30873;53.908;27.576;2023-02-27T03:41:10;1021;;;-0.3;55.1
45113;BME280;30873;53.908;27.576;2023-02-27T03:47:03;1021;;;-0.4;55.6
45113;BME280;30873;53.908;27.576;2023-02-27T03:51:47;1021.1;;;-0.2;55.8
45113;BME280;30873;53.908;27.576;2023-02-27T03:57:01;1021.2;;;-0.2;55.6
45113;BME280;30873;53.908;27.576;2023-02-27T04:01:09;1021.3;;;-0.1;55.5
45113;BME280;30873;53.908;27.576;2023-02-27T04:06:09;1021.4;;;-0.1;55.4
45113;BME280;30873;53.908;27.576;2023-02-27T04:12:04;1021.4;;;-0.1;55.2
45113;BME280;30873;53.908;27.576;2023-02-27T04:16:48;1021.5;;;-0.1;54.6
45113;BME280;30873;53.908;27.576;2023-02-27T04:22:06;1021.5;;;-0.1;55
45113;BME280;30873;53.908;27.576;2023-02-27T04:26:12;1021.6;;;0;55.2
45113;BME280;30873;53.908;27.576;2023-02-27T04:31:10;1021.7;;;0;55.3
45113;BME280;30873;53.908;27.576;2023-02-27T04:37:02;1021.7;;;0;55.5
45113;BME280;30873;53.908;27.576;2023-02-27T04:41:46;1021.7;;;-0.1;55.5
45113;BME280;30873;53.908;27.576;2023-02-27T04:47:03;1021.8;;;-0.2;55.7
45113;BME280;30873;53.908;27.576;2023-02-27T04:51:34;1021.9;;;-0.2;56
45113;BME280;30873;53.908;27.576;2023-02-27T04:56:22;1021.9;;;-0.1;55.5
45113;BME280;30873;53.908;27.576;2023-02-27T05:02:00;1022;;;-0.1;55
45113;BME280;30873;53.908;27.576;2023-02-27T05:06:47;1022;;;0;54.8
45113;BME280;30873;53.908;27.576;2023-02-27T05:12:04;1022.1;;;0.1;54.7
45113;BME280;30873;53.908;27.576;2023-02-27T05:16:20;1022.1;;;0.2;54.7
45113;BME280;30873;53.908;27.576;2023-02-27T05:21:21;1022.2;;;0.3;54.7
45113;BME280;30873;53.908;27.576;2023-02-27T05:27:03;1022.3;;;0.5;54.4
45113;BME280;30873;53.908;27.576;2023-02-27T05:31:45;1022.4;;;0.4;54.3
45113;BME280;30873;53.908;27.576;2023-02-27T05:37:00;1022.4;;;0.6;54.4
45113;BME280;30873;53.908;27.576;2023-02-27T05:41:09;1022.5;;;0.5;54.5
45113;BME280;30873;53.908;27.576;2023-02-27T05:46:34;1022.6;;;0.5;55
45113;BME280;30873;53.908;27.576;2023-02-27T05:51:59;1022.7;;;0.5;55.1
45113;BME280;30873;53.908;27.576;2023-02-27T05:56:47;1022.7;;;0.4;55.4
45113;BME280;30873;53.908;27.576;2023-02-27T06:02:01;1022.7;;;0.4;55.6
45113;BME280;30873;53.908;27.576;2023-02-27T06:06:11;1022.7;;;0.5;55.4
45113;BME280;30873;53.908;27.576;2023-02-27T06:11:09;1022.7;;;0.5;55.5
45113;BME280;30873;53.908;27.576;2023-02-27T06:16:19;1022.7;;;0.5;55.8
45113;BME280;30873;53.908;27.576;2023-02-27T06:21:45;1022.8;;;0.6;55.8
45113;BME280;30873;53.908;27.576;2023-02-27T06:26:59;1022.8;;;0.6;55.3
45113;BME280;30873;53.908;27.576;2023-02-27T06:31:39;1022.9;;;0.4;55.7
45113;BME280;30873;53.908;27.576;2023-02-27T06:36:51;1023;;;0.4;56
45113;BME280;30873;53.908;27.576;2023-02-27T06:41:19;1023.1;;;0.6;55.8
45113;BME280;30873;53.908;27.576;2023-02-27T06:46:47;1023.2;;;0.7;55.4
45113;BME280;30873;53.908;27.576;2023-02-27T06:52:01;1023.2;;;0.5;55.6
45113;BME280;30873;53.908;27.576;2023-02-27T06:56:09;1023.3;;;0.5;55.6
45113;BME280;30873;53.908;27.576;2023-02-27T07:01:21;1023.3;;;0.5;55.3
45113;BME280;30873;53.908;27.576;2023-02-27T07:06:21;1023.3;;;0.3;55.3
45113;BME280;30873;53.908;27.576;2023-02-27T07:11:47;1023.4;;;0.2;55.9
45113;BME280;30873;53.908;27.576;2023-02-27T07:17:01;1023.4;;;0.4;56.3
45113;BME280;30873;53.908;27.576;2023-02-27T07:21:09;1023.5;;;0.5;56.1
45113;BME280;30873;53.908;27.576;2023-02-27T07:26:09;1023.5;;;0.6;56.2
45113;BME280;30873;53.908;27.576;2023-02-27T07:31:43;1023.6;;;0.7;56.4
45113;BME280;30873;53.908;27.576;2023-02-27T07:36:45;1023.7;;;0.7;56.7
45113;BME280;30873;53.908;27.576;2023-02-27T07:42:01;1023.8;;;0.6;56.9
45113;BME280;30873;53.908;27.576;2023-02-27T07:46:19;1023.9;;;0.6;57.3
45113;BME280;30873;53.908;27.576;2023-02-27T07:51:31;1023.9;;;0.7;57.1
45113;BME280;30873;53.908;27.576;2023-02-27T07:56:19;1023.9;;;0.6;57.4
45113;BME280;30873;53.908;27.576;2023-02-27T10:46:34;1025.9;;;1.8;52.8
45113;BME280;30873;53.908;27.576;2023-02-27T10:51:26;1025.9;;;1.8;53
45113;BME280;30873;53.908;27.576;2023-02-27T10:56:54;1025.8;;;2.2;52.5
45113;BME280;30873;53.908;27.576;2023-02-27T11:02:04;1025.9;;;2.2;52.4
45113;BME280;30873;53.908;27.576;2023-02-27T11:06:11;1025.9;;;2.2;52.2
45113;BME280;30873;53.908;27.576;2023-02-27T11:11:53;1025.9;;;2.1;52.5
45113;BME280;30873;53.908;27.576;2023-02-27T11:16:11;1026;;;2.2;52
45113;BME280;30873;53.908;27.576;2023-02-27T11:21:52;1026;;;2.1;52.2
45113;BME280;30873;53.908;27.576;2023-02-27T11:27:02;1026;;;1.7;52.7
45113;BME280;30873;53.908;27.576;2023-02-27T11:31:14;1026;;;1.6;53.3
45113;BME280;30873;53.908;27.576;2023-02-27T11:36:37;1026.1;;;1.6;53.1
45113;BME280;30873;53.908;27.576;2023-02-27T11:41:09;1026.2;;;1.5;53.7
45113;BME280;30873;53.908;27.576;2023-02-27T11:46:51;1026.2;;;1.5;53.8
45113;BME280;30873;53.908;27.576;2023-02-27T11:52:06;1026.3;;;1.4;53.9
45113;BME280;30873;53.908;27.576;2023-02-27T11:56:40;1026.3;;;1.5;54.1
45113;BME280;30873;53.908;27.576;2023-02-27T12:01:42;1026.4;;;1.3;54
45113;BME280;30873;53.908;27.576;2023-02-27T12:06:22;1026.3;;;1.5;54.1
45113;BME280;30873;53.908;27.576;2023-02-27T12:12:04;1026.2;;;1.6;53.6
45113;BME280;30873;53.908;27.576;2023-02-27T12:17:02;1026.2;;;1.8;53.6
45113;BME280;30873;53.908;27.576;2023-02-27T12:21:35;1026.2;;;2;53.5
45113;BME280;30873;53.908;27.576;2023-02-27T12:26:50;1026.2;;;2.1;53.6
45113;BME280;30873;53.908;27.576;2023-02-27T12:31:25;1026.3;;;2.2;53.4
45113;BME280;30873;53.908;27.576;2023-02-27T12:36:51;1026.3;;;2;53.3
45113;BME280;30873;53.908;27.576;2023-02-27T12:42:09;1026.4;;;2;53.2
45113;BME280;30873;53.908;27.576;2023-02-27T12:46:40;1026.5;;;2;53.1
45113;BME280;30873;53.908;27.576;2023-02-27T12:51:51;1026.6;;;2.1;53.1
45113;BME280;30873;53.908;27.576;2023-02-27T12:56:17;1026.6;;;2.2;52.9
45113;BME280;30873;53.908;27.576;2023-02-27T13:01:50;1026.6;;;2;53.4
45113;BME280;30873;53.908;27.576;2023-02-27T13:06:56;1026.6;;;1.9;53.8
45113;BME280;30873;53.908;27.576;2023-02-27T13:11:44;1026.7;;;1.8;54.3
45113;BME280;30873;53.908;27.576;2023-02-27T13:16:59;1026.7;;;1.7;54.3
45113;BME280;30873;53.908;27.576;2023-02-27T13:21:10;1026.7;;;1.8;54.6
45113;BME280;30873;53.908;27.576;2023-02-27T13:26:50;1026.6;;;1.7;54.5
45113;BME280;30873;53.908;27.576;2023-02-27T13:32:00;1026.6;;;1.6;54.7
45113;BME280;30873;53.908;27.576;2023-02-27T13:36:20;1026.7;;;1.6;55
45113;BME280;30873;53.908;27.576;2023-02-27T13:41:59;1026.7;;;1.5;55
45113;BME280;30873;53.908;27.576;2023-02-27T13:46:32;1026.7;;;1.5;55.3
45113;BME280;30873;53.908;27.576;2023-02-27T13:51:50;1026.7;;;1.6;55.2
45113;BME280;30873;53.908;27.576;2023-02-27T13:57:28;1026.8;;;1.4;55.5
45113;BME280;30873;53.908;27.576;2023-02-27T14:01:33;1026.7;;;1.4;55.7
45113;BME280;30873;53.908;27.576;2023-02-27T14:07:00;1026.8;;;1.2;56
45113;BME280;30873;53.908;27.576;2023-02-27T14:11:20;1026.8;;;1.2;56.3
45113;BME280;30873;53.908;27.576;2023-02-27T14:16:53;1026.8;;;1.2;56.3
45113;BME280;30873;53.908;27.576;2023-02-27T14:22:00;1026.8;;;1.1;56.5
45113;BME280;30873;53.908;27.576;2023-02-27T14:26:36;1026.7;;;1.1;56.7
45113;BME280;30873;53.908;27.576;2023-02-27T14:31:50;1026.8;;;1.1;56.8
45113;BME280;30873;53.908;27.576;2023-02-27T14:36:33;1026.8;;;0.9;56.8
45113;BME280;30873;53.908;27.576;2023-02-27T14:41:55;1026.8;;;0.7;57.6
45113;BME280;30873;53.908;27.576;2023-02-27T14:46:59;1026.8;;;0.7;57.8
45113;BME280;30873;53.908;27.576;2023-02-27T14:51:35;1026.9;;;0.5;58.1
45113;BME280;30873;53.908;27.576;2023-02-27T14:57:00;1027;;;0.6;58.4
45113;BME280;30873;53.908;27.576;2023-02-27T15:01:21;1027.1;;;0.5;58.2
45113;BME280;30873;53.908;27.576;2023-02-27T15:06:51;1027.2;;;0.4;58.8
45113;BME280;30873;53.908;27.576;2023-02-27T15:11:59;1027.2;;;0.4;58.9
45113;BME280;30873;53.908;27.576;2023-02-27T15:16:51;1027.3;;;0.3;59.2
45113;BME280;30873;53.908;27.576;2023-02-27T15:22:00;1027.3;;;0.4;59.1
45113;BME280;30873;53.908;27.576;2023-02-27T15:26:10;1027.4;;;0.3;59.5
45113;BME280;30873;53.908;27.576;2023-02-27T15:31:47;1027.4;;;0.3;59.9
45113;BME280;30873;53.908;27.576;2023-02-27T15:36:59;1027.4;;;0.3;59.6
45113;BME280;30873;53.908;27.576;2023-02-27T15:41:35;1027.4;;;0.4;59.7
45113;BME280;30873;53.908;27.576;2023-02-27T15:46:57;1027.5;;;0.3;59.7
45113;BME280;30873;53.908;27.576;2023-02-27T15:51:09;1027.6;;;0.1;59.9
45113;BME280;30873;53.908;27.576;2023-02-27T15:56:23;1027.6;;;0.1;60.3
45113;BME280;30873;53.908;27.576;2023-02-27T16:02:01;1027.7;;;0;60.6
45113;BME280;30873;53.908;27.576;2023-02-27T16:06:09;1027.8;;;0.2;60.7
45113;BME280;30873;53.908;27.576;2023-02-27T16:12:18;1027.8;;;0.2;60.6
45113;BME280;30873;53.908;27.576;2023-02-27T16:16:21;1027.8;;;0.1;60.9
45113;BME280;30873;53.908;27.576;2023-02-27T16:22:05;1027.8;;;0;61.2
45113;BME280;30873;53.908;27.576;2023-02-27T16:26:59;1027.9;;;-0.1;61.6
45113;BME280;30873;53.908;27.576;2023-02-27T16:31:12;1028;;;0;61.6
45113;BME280;30873;53.908;27.576;2023-02-27T16:37:02;1028.1;;;0.2;61.5
45113;BME280;30873;53.908;27.576;2023-02-27T16:41:09;1028.1;;;0.3;61.2
45113;BME280;30873;53.908;27.576;2023-02-27T16:46:47;1028.1;;;0.2;61.1
45113;BME280;30873;53.908;27.576;2023-02-27T16:51:57;1028.2;;;0.1;61.3
45113;BME280;30873;53.908;27.576;2023-02-27T16:56:37;1028.3;;;0;61.4
45113;BME280;30873;53.908;27.576;2023-02-27T17:01:58;1028.4;;;0;61.7
45113;BME280;30873;53.908;27.576;2023-02-27T17:06:10;1028.4;;;0;61.7
45113;BME280;30873;53.908;27.576;2023-02-27T17:11:49;1028.6;;;0.1;61.9
45113;BME280;30873;53.908;27.576;2023-02-27T17:16:41;1028.6;;;0.1;61.7
45113;BME280;30873;53.908;27.576;2023-02-27T17:21:37;1028.6;;;0.1;61.8
45113;BME280;30873;53.908;27.576;2023-02-27T17:26:59;1028.7;;;0;61.6
45113;BME280;30873;53.908;27.576;2023-02-27T17:31:11;1028.7;;;0;61.8
45113;BME280;30873;53.908;27.576;2023-02-27T17:36:49;1028.7;;;0;62.1
45113;BME280;30873;53.908;27.576;2023-02-27T17:41:10;1028.8;;;0.1;61.9
45113;BME280;30873;53.908;27.576;2023-02-27T17:46:43;1028.8;;;0;61.9
45113;BME280;30873;53.908;27.576;2023-02-27T17:51:59;1028.8;;;0;62
45113;BME280;30873;53.908;27.576;2023-02-27T17:56:17;1028.8;;;0;62.1
45113;BME280;30873;53.908;27.576;2023-02-27T18:01:49;1028.9;;;0.1;61.8
45113;BME280;30873;53.908;27.576;2023-02-27T18:06:21;1028.9;;;0.1;61.8
45113;BME280;30873;53.908;27.576;2023-02-27T18:11:35;1029;;;0.2;61.9
45113;BME280;30873;53.908;27.576;2023-02-27T18:16:59;1029;;;0.3;61.4
45113;BME280;30873;53.908;27.576;2023-02-27T18:21:10;1029;;;0.3;61.2
45113;BME280;30873;53.908;27.576;2023-02-27T18:26:47;1029.1;;;0.4;61
45113;BME280;30873;53.908;27.576;2023-02-27T18:31:16;1029;;;0.3;61
45113;BME280;30873;53.908;27.576;2023-02-27T18:36:09;1029.1;;;0.3;60.8
45113;BME280;30873;53.908;27.576;2023-02-27T18:41:57;1029.2;;;0.1;60.7
45113;BME280;30873;53.908;27.576;2023-02-27T18:46:23;1029.2;;;0.1;60.7
45113;BME280;30873;53.908;27.576;2023-02-27T18:51:49;1029.2;;;0.1;60.5
45113;BME280;30873;53.908;27.576;2023-02-27T18:56:23;1029.3;;;-0.1;60.8
45113;BME280;30873;53.908;27.576;2023-02-27T19:01:45;1029.3;;;0;60.9
45113;BME280;30873;53.908;27.576;2023-02-27T19:06:57;1029.4;;;0.2;60.6
45113;BME280;30873;53.908;27.576;2023-02-27T19:11:29;1029.3;;;0.2;60.1
45113;BME280;30873;53.908;27.576;2023-02-27T19:16:49;1029.3;;;0.1;60.1
45113;BME280;30873;53.908;27.576;2023-02-27T19:21:09;1029.4;;;0.1;60.3
45113;BME280;30873;53.908;27.576;2023-02-27T19:26:09;1029.4;;;0.2;59.9
45113;BME280;30873;53.908;27.576;2023-02-27T19:31:57;1029.4;;;0.3;59.6
45113;BME280;30873;53.908;27.576;2023-02-27T19:36:29;1029.4;;;0.3;59.6
45113;BME280;30873;53.908;27.576;2023-02-27T19:41:49;1029.5;;;0.3;59.5
45113;BME280;30873;53.908;27.576;2023-02-27T19:46:10;1029.5;;;0.2;59.6
45113;BME280;30873;53.908;27.576;2023-02-27T19:51:37;1029.6;;;0.3;59.5
45113;BME280;30873;53.908;27.576;2023-02-27T19:56:59;1029.6;;;0.4;59.2
45113;BME280;30873;53.908;27.576;2023-02-27T20:01:21;1029.6;;;0.4;59.1
45113;BME280;30873;53.908;27.576;2023-02-27T20:06:47;1029.6;;;0.4;58.4
45113;BME280;30873;53.908;27.576;2023-02-27T20:11:09;1029.6;;;0.3;58.7
45113;BME280;30873;53.908;27.576;2023-02-27T20:16:37;1029.6;;;0.4;58.7
45113;BME280;30873;53.908;27.576;2023-02-27T20:21:57;1029.6;;;0.4;58.5
45113;BME280;30873;53.908;27.576;2023-02-27T20:26:13;1029.6;;;0.4;58.6
45113;BME280;30873;53.908;27.576;2023-02-27T20:31:50;1029.6;;;0.3;58.6
45113;BME280;30873;53.908;27.576;2023-02-27T20:36:09;1029.6;;;0.1;59
45113;BME280;30873;53.908;27.576;2023-02-27T20:41:35;1029.7;;;0;59.2
45113;BME280;30873;53.908;27.576;2023-02-27T20:46:57;1029.7;;;-0.2;59.5
45113;BME280;30873;53.908;27.576;2023-02-27T20:51:22;1029.7;;;-0.3;59.7
45113;BME280;30873;53.908;27.576;2023-02-27T20:56:43;1029.7;;;-0.5;60.1
45113;BME280;30873;53.908;27.576;2023-02-27T21:01:23;1029.7;;;-0.3;59.9
45113;BME280;30873;53.908;27.576;2023-02-27T21:06:35;1029.6;;;-0.1;59.3
45113;BME280;30873;53.908;27.576;2023-02-27T21:11:43;1029.5;;;-0.1;59.2
45113;BME280;30873;53.908;27.576;2023-02-27T21:16:17;1029.5;;;0;59.1
45113;BME280;30873;53.908;27.576;2023-02-27T21:21:49;1029.6;;;0.1;59
45113;BME280;30873;53.908;27.576;2023-02-27T21:26:10;1029.6;;;0;59.2
45113;BME280;30873;53.908;27.576;2023-02-27T21:31:36;1029.6;;;-0.2;59.5
45113;BME280;30873;53.908;27.576;2023-02-27T21:36:59;1029.6;;;-0.3;59.7
45113;BME280;30873;53.908;27.576;2023-02-27T21:41:31;1029.7;;;-0.3;60
45113;BME280;30873;53.908;27.576;2023-02-27T21:46:59;1029.8;;;-0.5;59.9
45113;BME280;30873;53.908;27.576;2023-02-27T21:51:23;1029.8;;;-0.3;59.6
45113;BME280;30873;53.908;27.576;2023-02-27T21:56:35;1029.8;;;-0.2;59.3
45113;BME280;30873;53.908;27.576;2023-02-27T22:01:55;1029.8;;;-0.5;59.4
45113;BME280;30873;53.908;27.576;2023-02-27T22:06:09;1029.9;;;-0.8;59.9
45113;BME280;30873;53.908;27.576;2023-02-27T22:11:49;1030;;;-0.8;60.1
45113;BME280;30873;53.908;27.576;2023-02-27T22:16:23;1030;;;-0.6;60.2
45113;BME280;30873;53.908;27.576;2023-02-27T22:21:23;1030;;;-0.5;60
45113;BME280;30873;53.908;27.576;2023-02-27T22:26:59;1030;;;-0.7;59.9
45113;BME280;30873;53.908;27.576;2023-02-27T22:31:10;1030;;;-0.9;60.2
45113;BME280;30873;53.908;27.576;2023-02-27T22:36:10;1030;;;-0.9;60.6
45113;BME280;30873;53.908;27.576;2023-02-27T22:41:30;1030;;;-1;61
45113;BME280;30873;53.908;27.576;2023-02-27T22:46:46;1030.1;;;-0.9;60.9
45113;BME280;30873;53.908;27.576;2023-02-27T22:51:59;1030.1;;;-0.8;61.1
45113;BME280;30873;53.908;27.576;2023-02-27T22:56:17;1030.1;;;-0.7;60.9
45113;BME280;30873;53.908;27.576;2023-02-27T23:01:45;1030;;;-0.7;60.9
45113;BME280;30873;53.908;27.576;2023-02-27T23:06:29;1030;;;-0.7;60.9
45113;BME280;30873;53.908;27.576;2023-02-27T23:11:37;1030;;;-0.7;61.1
45113;BME280;30873;53.908;27.576;2023-02-27T23:16:59;1030;;;-0.6;61.1
45113;BME280;30873;53.908;27.576;2023-02-27T23:21:30;1030;;;-0.7;61.3
45113;BME280;30873;53.908;27.576;2023-02-27T23:26:51;1030;;;-0.8;61.7
45113;BME280;30873;53.908;27.576;2023-02-27T23:31:21;1030;;;-0.7;61.5
45113;BME280;30873;53.908;27.576;2023-02-27T23:36:37;1029.9;;;-0.8;61.7
45113;BME280;30873;53.908;27.576;2023-02-27T23:41:59;1029.9;;;-0.8;62
45113;BME280;30873;53.908;27.576;2023-02-27T23:46:21;1029.9;;;-0.8;61.9
45113;BME280;30873;53.908;27.576;2023-02-27T23:51:49;1029.8;;;-0.8;62
45113;BME280;30873;53.908;27.576;2023-02-27T23:56:22;1029.8;;;-0.7;62.1
